Time;durP1;ratioP1;P1;durP2;ratioP2;P2;SDS_P1;SDS_P2;PMS_P1;PMS_P2;Temp;Humidity;BMP_temperature;BMP_pressure;BME280_temperature;BME280_humidity;BME280_pressure;Samples;Min_cycle;Max_cycle;Signal;HPM_P1;HPM_P2
2021/06/13 00:01:42;;;;;;;10.30;2.57;;;;;;;-144.99;66.45;52276.88;5035261;28;20269;-76
2021/06/13 00:04:17;;;;;;;7.90;2.83;;;;;;;-144.99;66.64;52311.53;5041283;28;20668;-75
2021/06/13 00:06:53;;;;;;;10.23;3.17;;;;;;;-144.99;66.70;52238.16;5048360;28;21270;-77
2021/06/13 00:09:27;;;;;;;7.10;2.63;;;;;;;-144.99;66.74;52262.63;5042866;28;20202;-76
2021/06/13 00:12:02;;;;;;;5.33;2.37;;;;;;;-144.99;66.96;52225.94;5053777;28;20216;-75
2021/06/13 00:14:38;;;;;;;8.43;2.30;;;;;;;-144.99;67.11;52309.50;5041691;28;20212;-75
2021/06/13 00:17:15;;;;;;;9.93;5.07;;;;;;;-144.99;67.34;52309.50;5038418;28;20249;-76
2021/06/13 00:19:49;;;;;;;7.30;2.50;;;;;;;-144.99;67.41;52285.03;5037174;28;20214;-77
2021/06/13 00:22:24;;;;;;;7.37;3.00;;;;;;;-144.99;67.47;52268.72;5036398;28;20215;-75
2021/06/13 00:24:58;;;;;;;9.80;3.83;;;;;;;-144.99;67.41;52280.97;5047692;28;20524;-75
2021/06/13 00:27:33;;;;;;;9.43;2.97;;;;;;;-144.99;67.52;52293.19;5046469;28;20610;-77
2021/06/13 00:30:07;;;;;;;8.73;2.93;;;;;;;-144.99;67.61;52317.66;5041413;28;20205;-77
2021/06/13 00:32:41;;;;;;;8.50;2.73;;;;;;;-144.99;67.59;52287.06;5049729;28;20697;-76
2021/06/13 00:35:17;;;;;;;9.07;3.10;;;;;;;-144.99;67.36;52272.81;5054961;28;20232;-76
2021/06/13 00:37:53;;;;;;;11.17;3.23;;;;;;;-144.99;67.33;52252.44;5041009;28;20218;-76
2021/06/13 00:40:29;;;;;;;7.27;2.40;;;;;;;-144.99;67.18;52272.81;5045500;28;20676;-77
2021/06/13 00:43:04;;;;;;;9.93;3.33;;;;;;;-144.99;66.85;52301.34;5047733;28;20646;-78
2021/06/13 00:45:39;;;;;;;8.47;2.67;;;;;;;-144.99;66.86;52307.47;5049765;28;20263;-76
2021/06/13 00:48:14;;;;;;;5.53;3.03;;;;;;;-144.99;66.69;52276.88;5049431;28;20205;-79
2021/06/13 00:50:52;;;;;;;10.37;4.83;;;;;;;-144.99;66.79;52276.88;5062323;28;20212;-77
2021/06/13 00:53:29;;;;;;;8.13;2.97;;;;;;;-144.99;67.04;52280.97;5060612;28;20232;-78
2021/06/13 00:56:01;;;;;;;11.50;2.97;;;;;;;-144.99;66.82;52278.91;5047629;28;20225;-77
2021/06/13 00:58:36;;;;;;;6.17;2.63;;;;;;;-144.99;66.60;52268.72;5048780;28;20249;-78
2021/06/13 01:01:12;;;;;;;7.50;3.03;;;;;;;-144.99;66.91;52280.97;5052859;28;20208;-76
2021/06/13 01:03:48;;;;;;;8.60;2.53;;;;;;;-144.99;66.91;52285.03;5042767;28;20209;-76
2021/06/13 01:06:31;;;;;;;4.40;3.13;;;;;;;-144.99;66.89;52264.66;5050676;28;20222;-78
2021/06/13 01:09:09;;;;;;;11.60;3.63;;;;;;;-144.99;66.79;52293.19;5050658;28;21667;-81
2021/06/13 01:11:49;;;;;;;6.23;2.77;;;;;;;-144.99;66.90;52248.34;5060524;28;20683;-80
2021/06/13 01:14:31;;;;;;;5.87;2.47;;;;;;;-144.99;66.79;52240.19;5041862;28;20271;-79
2021/06/13 01:17:19;;;;;;;6.30;2.50;;;;;;;-144.99;66.82;52289.13;5052235;28;20323;-80
2021/06/13 01:20:02;;;;;;;6.67;2.20;;;;;;;-144.99;67.17;52285.03;5042060;28;20218;-79
2021/06/13 01:22:57;;;;;;;6.13;3.00;;;;;;;-144.99;67.31;52305.41;5046035;28;20271;-79
2021/06/13 01:25:41;;;;;;;7.23;2.53;;;;;;;-144.99;67.32;52276.88;5048078;28;20225;-81
2021/06/13 01:28:57;;;;;;;5.83;2.33;;;;;;;-144.99;67.80;52268.72;5050981;28;20213;-81
2021/06/13 01:31:33;;;;;;;9.13;3.27;;;;;;;-144.99;68.03;52280.97;4949417;29;20201;-79
2021/06/13 01:34:07;;;;;;;8.00;2.70;;;;;;;-144.99;68.19;52240.19;5043760;28;20205;-81
2021/06/13 01:36:44;;;;;;;10.90;3.33;;;;;;;-144.99;68.29;52232.03;5056303;28;20226;-80
2021/06/13 01:39:25;;;;;;;5.27;3.07;;;;;;;-144.99;68.48;52272.81;5052439;28;20209;-82
2021/06/13 01:41:59;;;;;;;12.00;2.83;;;;;;;-144.99;68.70;52264.66;5052986;28;20205;-76
2021/06/13 01:44:35;;;;;;;6.83;2.83;;;;;;;-144.99;68.91;52309.50;5050210;28;20250;-77
2021/06/13 01:47:11;;;;;;;6.33;2.57;;;;;;;-144.99;68.82;52264.66;5040254;28;20231;-79
2021/06/13 01:49:47;;;;;;;10.40;2.13;;;;;;;-144.99;69.00;52252.44;5048593;28;20216;-77
2021/06/13 01:52:22;;;;;;;7.83;3.37;;;;;;;-144.99;68.75;52313.56;5054326;28;20200;-78
2021/06/13 01:54:58;;;;;;;10.33;5.70;;;;;;;-144.99;68.75;52280.97;5049769;28;20608;-75
2021/06/13 01:57:30;;;;;;;12.43;3.60;;;;;;;-144.99;68.63;52325.81;5038378;28;20315;-76
2021/06/13 02:00:12;;;;;;;9.40;3.17;;;;;;;-144.99;68.59;52203.50;5047866;28;20358;-79
2021/06/13 02:02:52;;;;;;;13.30;2.87;;;;;;;-144.99;68.52;52285.03;5049220;28;20366;-79
2021/06/13 02:05:28;;;;;;;13.77;3.07;;;;;;;-144.99;68.37;52291.16;5046620;28;20229;-79
2021/06/13 02:08:03;;;;;;;9.90;3.50;;;;;;;-144.99;68.31;52289.13;5049991;28;20196;-77
2021/06/13 02:10:38;;;;;;;6.00;2.93;;;;;;;-144.99;68.36;52236.13;5049942;28;20208;-79
2021/06/13 02:13:16;;;;;;;12.43;3.17;;;;;;;-144.99;68.27;52293.19;5048611;28;20205;-82
2021/06/13 02:15:49;;;;;;;5.30;2.03;;;;;;;-144.99;68.28;52293.19;4704588;28;9999657;-81
2021/06/13 02:18:26;;;;;;;8.77;2.77;;;;;;;-144.99;68.27;52285.03;5047321;28;20232;-79
2021/06/13 02:21:05;;;;;;;8.27;2.60;;;;;;;-144.99;68.25;52297.25;5053422;28;20210;-83
2021/06/13 02:23:40;;;;;;;8.60;3.00;;;;;;;-144.99;68.04;52256.50;5046938;28;20296;-79
2021/06/13 02:26:13;;;;;;;12.50;4.60;;;;;;;-144.99;68.13;52260.56;5049084;28;20290;-80
2021/06/13 02:28:51;;;;;;;5.73;3.13;;;;;;;-144.99;68.01;52309.50;5046790;28;20629;-78
2021/06/13 02:31:32;;;;;;;6.00;2.37;;;;;;;-144.99;68.20;52252.44;5049897;28;20613;-79
2021/06/13 02:34:07;;;;;;;13.83;3.37;;;;;;;-144.99;68.08;52268.72;5050693;28;20828;-75
2021/06/13 02:36:41;;;;;;;17.57;5.13;;;;;;;-144.99;68.02;52268.72;5052669;28;20286;-73
2021/06/13 02:39:16;;;;;;;11.37;4.67;;;;;;;-144.99;68.26;52276.88;5046375;28;20197;-78
2021/06/13 02:41:51;;;;;;;11.73;2.70;;;;;;;-144.99;68.44;52242.22;5042213;28;20202;-77
2021/06/13 02:44:23;;;;;;;7.17;2.37;;;;;;;-144.99;68.87;52280.97;5060303;28;20238;-77
2021/06/13 02:46:57;;;;;;;6.77;2.60;;;;;;;-144.99;68.88;52268.72;5054240;28;20309;-78
2021/06/13 02:49:32;;;;;;;7.27;3.13;;;;;;;-144.99;69.02;52280.97;5042515;28;20197;-76
2021/06/13 02:52:07;;;;;;;8.90;3.37;;;;;;;-144.99;69.42;52276.88;5047242;28;20201;-76
2021/06/13 02:54:45;;;;;;;8.17;3.07;;;;;;;-144.99;69.24;52252.44;5050159;28;20227;-77
2021/06/13 02:57:25;;;;;;;5.87;2.80;;;;;;;-144.99;69.56;52248.34;5046783;28;20573;-78
2021/06/13 03:00:04;;;;;;;4.90;2.07;;;;;;;-144.99;69.82;52289.13;5042093;28;20198;-75
2021/06/13 03:02:39;;;;;;;7.23;2.63;;;;;;;-144.99;69.90;52252.44;5050165;28;20205;-78
2021/06/13 03:05:15;;;;;;;9.20;3.03;;;;;;;-144.99;70.28;52317.66;5051715;28;20221;-76
2021/06/13 03:07:51;;;;;;;9.27;5.57;;;;;;;-144.99;70.00;52309.50;5043612;28;20632;-75
2021/06/13 03:10:26;;;;;;;7.03;3.20;;;;;;;-144.99;70.01;52248.34;5055936;28;20197;-76
2021/06/13 03:13:04;;;;;;;8.13;3.47;;;;;;;-144.99;70.00;52280.97;5049284;28;20197;-76
2021/06/13 03:15:39;;;;;;;7.73;2.83;;;;;;;-144.99;69.91;52325.81;5041883;28;20299;-75
2021/06/13 03:18:15;;;;;;;11.37;3.83;;;;;;;-144.99;69.59;52236.13;5042653;28;20228;-78
2021/06/13 03:20:49;;;;;;;9.50;2.73;;;;;;;-144.99;69.24;52272.81;5051833;28;20585;-76
2021/06/13 03:23:24;;;;;;;8.40;3.33;;;;;;;-144.99;69.32;52264.66;5051883;28;20676;-75
2021/06/13 03:26:01;;;;;;;9.13;3.07;;;;;;;-144.99;68.94;52268.72;5054245;28;20235;-76
2021/06/13 03:28:37;;;;;;;7.13;2.87;;;;;;;-144.99;68.01;52311.53;5046596;28;20570;-74
2021/06/13 03:31:09;;;;;;;9.47;4.00;;;;;;;-144.99;67.97;52211.66;5044003;28;20220;-75
2021/06/13 03:33:46;;;;;;;12.27;4.47;;;;;;;-144.99;67.86;52260.56;5047735;28;20202;-75
2021/06/13 03:36:23;;;;;;;11.80;3.30;;;;;;;-144.99;67.70;52276.88;5053518;28;20236;-77
2021/06/13 03:39:00;;;;;;;12.53;3.10;;;;;;;-144.99;67.73;52256.50;5041677;28;20209;-78
2021/06/13 03:41:38;;;;;;;8.20;2.93;;;;;;;-144.99;67.84;52244.28;5040976;28;20213;-74
2021/06/13 03:44:13;;;;;;;11.40;6.33;;;;;;;-144.99;67.82;52219.81;5045481;28;20652;-77
2021/06/13 03:46:49;;;;;;;15.73;4.13;;;;;;;-144.99;67.85;52266.69;5045552;28;20235;-74
2021/06/13 03:49:26;;;;;;;7.43;3.30;;;;;;;-144.99;67.92;52283.00;5046159;28;20689;-77
2021/06/13 03:52:01;;;;;;;14.13;7.90;;;;;;;-144.99;68.05;52256.50;5048462;28;20222;-79
2021/06/13 03:54:36;;;;;;;6.57;3.50;;;;;;;-144.99;68.31;52293.19;5061471;28;20199;-78
2021/06/13 03:57:10;;;;;;;5.63;3.33;;;;;;;-144.99;68.42;52293.19;5055915;28;20200;-80
2021/06/13 04:02:29;;;;;;;13.10;3.63;;;;;;;-144.99;68.70;52289.13;5052710;28;20206;-78
2021/06/13 04:05:06;;;;;;;6.83;4.13;;;;;;;-144.99;68.94;52287.06;5051916;28;20241;-79
2021/06/13 04:07:41;;;;;;;9.23;4.37;;;;;;;-144.99;69.07;52236.13;5053725;28;20200;-79
2021/06/13 04:10:13;;;;;;;19.67;6.00;;;;;;;-144.99;69.05;52260.56;5049297;28;20205;-77
2021/06/13 04:12:49;;;;;;;9.87;4.10;;;;;;;-144.99;69.71;52258.53;5050240;28;20576;-78
2021/06/13 04:15:27;;;;;;;15.50;4.17;;;;;;;-144.99;69.93;52248.34;5055745;28;20243;-76
2021/06/13 04:18:02;;;;;;;12.43;4.07;;;;;;;-144.99;69.85;52240.19;5040573;28;20719;-78
2021/06/13 04:20:39;;;;;;;9.77;4.87;;;;;;;-144.99;69.97;52285.03;5049391;28;20205;-79
2021/06/13 04:23:16;;;;;;;19.07;4.93;;;;;;;-144.99;69.61;52260.56;5052066;28;20255;-77
2021/06/13 04:25:52;;;;;;;9.20;3.00;;;;;;;-144.99;70.18;52260.56;5046401;28;20251;-76
2021/06/13 04:28:29;;;;;;;7.10;3.87;;;;;;;-144.99;70.58;52276.88;5046871;28;20209;-79
2021/06/13 04:31:19;;;;;;;14.80;3.67;;;;;;;-144.99;70.63;52264.66;5052221;28;20201;-77
2021/06/13 04:33:55;;;;;;;9.97;4.73;;;;;;;-144.99;70.86;52256.50;5052294;28;20212;-80
2021/06/13 04:36:31;;;;;;;9.80;2.60;;;;;;;-144.99;70.78;52266.69;5048949;28;20636;-79
2021/06/13 04:39:06;;;;;;;9.33;3.63;;;;;;;-144.99;71.24;52285.03;5051663;28;20228;-76
2021/06/13 04:41:41;;;;;;;8.60;4.57;;;;;;;-144.99;71.00;52254.47;5053940;28;20207;-78
2021/06/13 04:46:59;;;;;;;10.17;3.53;;;;;;;-144.99;70.73;52285.03;5049904;28;20524;-76
2021/06/13 04:49:36;;;;;;;9.13;3.63;;;;;;;-144.99;70.78;52276.88;5050090;28;20198;-78
2021/06/13 04:52:15;;;;;;;9.03;3.90;;;;;;;-144.99;70.60;52260.56;5046333;28;20205;-79
2021/06/13 04:55:05;;;;;;;12.20;5.37;;;;;;;-144.99;70.50;52276.88;5058402;28;20229;-79
2021/06/13 04:57:50;;;;;;;10.50;3.90;;;;;;;-144.99;70.50;52285.03;5028662;28;20207;-78
2021/06/13 05:00:22;;;;;;;9.37;4.80;;;;;;;-144.99;70.57;52252.44;5053173;28;20213;-76
2021/06/13 05:02:57;;;;;;;13.47;4.73;;;;;;;-144.99;70.23;52276.88;5048877;28;20206;-78
2021/06/13 05:05:32;;;;;;;14.80;4.67;;;;;;;-144.99;69.81;52280.97;5055825;28;20226;-76
2021/06/13 05:08:09;;;;;;;8.67;3.77;;;;;;;-144.99;69.56;52236.13;5048558;28;20212;-77
2021/06/13 05:10:44;;;;;;;9.13;4.37;;;;;;;-144.99;69.40;52256.50;5051736;28;20201;-75
2021/06/13 05:13:23;;;;;;;14.87;4.30;;;;;;;-144.99;68.88;52264.66;5047672;28;20208;-77
2021/06/13 05:15:58;;;;;;;12.87;3.80;;;;;;;-144.99;68.46;52264.66;5055227;28;20253;-76
2021/06/13 05:18:33;;;;;;;9.43;3.00;;;;;;;-144.99;68.39;52252.44;5049755;28;20589;-76
2021/06/13 05:21:08;;;;;;;10.50;4.23;;;;;;;-144.99;68.22;52236.13;5056311;28;20209;-79
2021/06/13 05:23:42;;;;;;;11.83;4.67;;;;;;;-144.99;68.34;52297.25;5055411;28;20711;-77
2021/06/13 05:26:20;;;;;;;7.77;4.10;;;;;;;-144.99;67.78;52252.44;5056506;28;20256;-79
2021/06/13 05:28:52;;;;;;;12.43;4.77;;;;;;;-144.99;67.60;52250.38;5037956;28;20206;-78
2021/06/13 05:31:22;;;;;;;10.47;4.73;;;;;;;-144.99;67.22;52297.25;5050259;28;20494;-78
2021/06/13 05:33:57;;;;;;;10.07;4.40;;;;;;;-144.99;66.67;52276.88;5049484;28;20209;-79
2021/06/13 05:36:32;;;;;;;13.00;4.57;;;;;;;-144.99;66.29;52260.56;5042493;28;20234;-77
2021/06/13 05:39:09;;;;;;;13.30;4.47;;;;;;;-144.99;66.29;52268.72;5044137;28;20232;-78
2021/06/13 05:41:44;;;;;;;15.17;4.53;;;;;;;-144.99;65.95;52223.88;5054449;28;20205;-76
2021/06/13 05:44:17;;;;;;;13.20;6.53;;;;;;;-144.99;65.57;52254.47;5052494;28;20713;-78
2021/06/13 05:49:32;;;;;;;12.10;5.03;;;;;;;-144.99;65.06;52266.69;5052503;28;20202;-77
2021/06/13 05:52:05;;;;;;;12.27;3.73;;;;;;;-144.99;64.80;52227.97;5050784;28;20218;-78
2021/06/13 05:54:45;;;;;;;10.17;4.00;;;;;;;-144.99;64.52;52268.72;5049676;28;20206;-78
2021/06/13 06:00:01;;;;;;;7.53;2.57;;;;;;;-144.99;64.26;52223.88;5050101;28;20249;-78
2021/06/13 06:02:36;;;;;;;9.90;3.77;;;;;;;-144.99;64.16;52236.13;5046453;28;20206;-79
2021/06/13 06:05:13;;;;;;;9.20;3.40;;;;;;;-144.99;64.26;52244.28;5050535;28;20226;-78
2021/06/13 06:07:46;;;;;;;10.90;3.63;;;;;;;-144.99;64.06;52240.19;5056301;28;20214;-75
2021/06/13 06:10:23;;;;;;;8.97;3.87;;;;;;;-144.99;63.55;52264.66;5048854;28;20666;-72
2021/06/13 06:13:01;;;;;;;10.87;3.40;;;;;;;-144.99;62.92;52230.00;5050371;28;21024;-74
2021/06/13 06:15:38;;;;;;;10.20;3.10;;;;;;;-144.99;62.65;52244.28;5050332;28;20248;-74
2021/06/13 06:18:13;;;;;;;9.37;3.90;;;;;;;-144.99;61.82;52219.81;5044531;28;21052;-73
2021/06/13 06:23:37;;;;;;;9.70;4.13;;;;;;;-144.99;61.81;52250.38;5049678;28;20207;-73
2021/06/13 06:26:16;;;;;;;13.90;4.80;;;;;;;-144.99;62.00;52240.19;5050975;28;20224;-74
2021/06/13 06:28:49;;;;;;;8.70;3.50;;;;;;;-144.99;62.12;52258.53;5046594;28;20195;-73
2021/06/13 06:31:24;;;;;;;9.90;3.17;;;;;;;-144.99;62.72;52260.56;5045092;28;20602;-74
2021/06/13 06:33:56;;;;;;;9.77;3.67;;;;;;;-144.99;62.95;52236.13;5044917;28;20213;-77
2021/06/13 06:36:28;;;;;;;14.53;6.27;;;;;;;-144.99;63.08;52227.97;5054036;28;20228;-77
2021/06/13 06:39:03;;;;;;;15.50;3.57;;;;;;;-144.99;63.39;52260.56;5052267;28;20227;-79
2021/06/13 06:41:49;;;;;;;7.63;3.50;;;;;;;-144.99;63.48;52232.03;5053455;28;20339;-76
2021/06/13 06:44:24;;;;;;;7.30;2.97;;;;;;;-144.99;63.18;52276.88;5059589;28;20224;-77
2021/06/13 06:47:02;;;;;;;12.73;4.07;;;;;;;-144.99;62.67;52252.44;5050929;28;20216;-76
2021/06/13 06:49:37;;;;;;;6.13;3.20;;;;;;;-144.99;62.35;52240.19;5046444;28;20297;-79
2021/06/13 06:52:20;;;;;;;11.20;4.33;;;;;;;-144.99;61.75;52236.13;5047228;28;20204;-77
2021/06/13 06:54:56;;;;;;;10.73;4.67;;;;;;;-144.99;61.98;52205.53;5054457;28;20226;-79
2021/06/13 06:57:37;;;;;;;11.37;3.83;;;;;;;-144.99;61.68;52252.44;5052119;28;20203;-81
2021/06/13 07:00:14;;;;;;;9.40;3.00;;;;;;;-144.99;61.91;52201.47;5052593;28;20289;-77
2021/06/13 07:02:46;;;;;;;13.33;3.80;;;;;;;-144.99;62.09;52221.84;5052647;28;20585;-77
2021/06/13 07:05:21;;;;;;;7.47;3.77;;;;;;;-144.99;62.76;52197.41;5052902;28;20897;-73
2021/06/13 07:10:43;;;;;;;16.07;4.40;;;;;;;-144.99;62.91;52254.47;5048034;28;20239;-75
2021/06/13 07:13:23;;;;;;;10.60;3.40;;;;;;;-144.99;61.35;52227.97;5036924;28;20197;-73
2021/06/13 07:15:58;;;;;;;6.13;3.07;;;;;;;-144.99;61.46;52260.56;5045921;28;20746;-75
2021/06/13 07:18:34;;;;;;;9.20;4.37;;;;;;;-144.99;60.92;52225.94;5048496;28;20232;-74
2021/06/13 07:21:09;;;;;;;14.10;4.03;;;;;;;-144.99;60.88;52236.13;5046822;28;20228;-78
2021/06/13 07:23:44;;;;;;;10.90;3.97;;;;;;;-144.99;60.68;52230.00;5044027;28;20235;-78
2021/06/13 07:26:16;;;;;;;10.77;3.50;;;;;;;-144.99;60.62;52264.66;5041376;28;20248;-75
2021/06/13 07:28:52;;;;;;;8.07;3.30;;;;;;;-144.99;61.11;52240.19;5045590;28;20197;-75
2021/06/13 07:31:27;;;;;;;15.53;6.30;;;;;;;-144.99;60.53;52223.88;5071123;22;20237;-74
2021/06/13 07:34:02;;;;;;;12.13;3.73;;;;;;;-144.99;61.25;52248.34;5040992;28;20197;-74
2021/06/13 07:36:37;;;;;;;10.93;4.83;;;;;;;-144.99;61.40;52227.97;5039223;28;20216;-73
2021/06/13 07:39:07;;;;;;;10.23;3.43;;;;;;;-144.99;61.04;52211.66;5037491;28;20856;-73
2021/06/13 07:41:42;;;;;;;7.57;3.60;;;;;;;-144.99;59.60;52240.19;5039989;28;20286;-77
2021/06/13 07:44:19;;;;;;;9.67;3.60;;;;;;;-144.99;60.18;52211.66;5046010;28;20309;-77
2021/06/13 07:46:54;;;;;;;15.53;5.53;;;;;;;-144.99;60.21;52236.13;5051009;28;20209;-75
2021/06/13 07:49:38;;;;;;;9.17;3.23;;;;;;;-144.99;59.75;52219.81;5051180;28;20197;-77
2021/06/13 07:52:11;;;;;;;8.53;4.27;;;;;;;-144.99;58.37;52179.06;5043918;28;20240;-76
2021/06/13 07:57:33;;;;;;;11.10;3.97;;;;;;;-144.99;58.03;52195.34;5049599;28;20256;-76
2021/06/13 08:00:09;;;;;;;7.40;3.60;;;;;;;-144.99;58.07;52223.88;5047346;28;20244;-79
2021/06/13 08:02:44;;;;;;;12.00;3.90;;;;;;;-144.99;58.21;52244.28;5046631;28;20206;-78
2021/06/13 08:05:24;;;;;;;11.77;5.33;;;;;;;-144.99;59.17;52240.19;5043134;28;20208;-76
2021/06/13 08:07:57;;;;;;;7.30;3.43;;;;;;;-144.99;59.16;52191.28;5044527;28;20324;-75
2021/06/13 08:13:17;;;;;;;9.77;4.53;;;;;;;-144.99;59.63;52207.59;5043457;28;20205;-75
2021/06/13 08:15:53;;;;;;;11.87;3.90;;;;;;;-144.99;59.80;52199.44;5042673;28;20214;-77
2021/06/13 08:18:28;;;;;;;10.93;5.10;;;;;;;-144.99;59.55;52187.19;5043818;28;20386;-77
2021/06/13 08:20:55;;;;;;;13.23;5.10;;;;;;;-144.99;59.80;52219.81;5044258;28;20256;-76
2021/06/13 08:23:27;;;;;;;17.93;12.33;;;;;;;-144.99;59.08;52242.22;5041328;28;20574;-78
2021/06/13 08:26:02;;;;;;;15.17;6.37;;;;;;;-144.99;59.12;52191.28;5045996;28;20637;-78
2021/06/13 08:28:31;;;;;;;8.90;4.37;;;;;;;-144.99;59.29;52244.28;5048167;28;20217;-79
2021/06/13 08:31:11;;;;;;;9.70;4.20;;;;;;;-144.99;58.54;52193.31;5048455;28;20320;-78
2021/06/13 08:33:46;;;;;;;14.73;4.70;;;;;;;-144.99;57.64;52240.19;5053588;28;20205;-76
2021/06/13 08:36:21;;;;;;;13.77;5.07;;;;;;;-144.99;57.66;52240.19;5047707;28;20210;-76
2021/06/13 08:38:56;;;;;;;7.77;3.67;;;;;;;-144.99;57.51;52199.44;5042511;28;20244;-77
2021/06/13 08:41:31;;;;;;;10.00;3.97;;;;;;;-144.99;57.99;52187.19;5041978;28;20644;-77
2021/06/13 08:44:07;;;;;;;15.37;5.13;;;;;;;-144.99;58.64;52201.47;5044408;28;20224;-77
2021/06/13 08:46:51;;;;;;;10.90;5.30;;;;;;;-144.99;60.07;52174.97;5047574;28;20235;-78
2021/06/13 08:52:08;;;;;;;16.47;4.80;;;;;;;-144.99;57.70;52199.44;5046425;28;20487;-77
2021/06/13 08:54:44;;;;;;;16.03;4.30;;;;;;;-144.99;56.72;52183.13;5049147;28;20285;-80
2021/06/13 08:57:19;;;;;;;9.53;3.70;;;;;;;-144.99;56.20;52183.13;5041079;28;20620;-78
2021/06/13 08:59:51;;;;;;;9.53;4.87;;;;;;;-144.99;55.04;52142.38;5048715;28;20220;-78
2021/06/13 09:02:25;;;;;;;18.00;3.87;;;;;;;-144.99;54.70;52166.81;5048889;28;20289;-76
2021/06/13 09:05:00;;;;;;;12.43;3.87;;;;;;;-144.99;53.78;52174.97;5047111;28;20221;-79
2021/06/13 09:07:35;;;;;;;17.13;8.77;;;;;;;-144.99;53.73;52191.28;5046148;28;20205;-77
2021/06/13 09:10:19;;;;;;;13.70;6.33;;;;;;;-144.99;54.81;52199.44;5046222;28;20581;-78
2021/06/13 09:12:55;;;;;;;13.37;4.70;;;;;;;-144.99;55.05;52193.31;5056085;28;20209;-80
2021/06/13 09:15:40;;;;;;;7.47;5.20;;;;;;;-144.99;55.21;52191.28;5053080;28;20198;-80
2021/06/13 09:18:32;;;;;;;7.50;4.67;;;;;;;-144.99;54.45;52152.56;5049359;28;20213;-78
2021/06/13 09:21:14;;;;;;;13.03;4.77;;;;;;;-144.99;54.53;52166.81;5045696;28;20222;-78
2021/06/13 09:23:50;;;;;;;9.97;4.73;;;;;;;-144.99;53.79;52158.66;5047032;28;20207;-77
2021/06/13 09:26:27;;;;;;;13.23;6.07;;;;;;;-144.99;52.04;52223.88;5042630;28;20510;-76
2021/06/13 09:29:08;;;;;;;12.27;5.57;;;;;;;-144.99;52.59;52211.66;5044493;28;20214;-76
2021/06/13 09:31:43;;;;;;;11.77;4.73;;;;;;;-144.99;52.74;52170.91;5042988;28;20237;-78
2021/06/13 09:34:20;;;;;;;9.80;4.63;;;;;;;-144.99;53.32;52170.91;5043469;28;20606;-77
2021/06/13 09:36:52;;;;;;;9.30;4.43;;;;;;;-144.99;53.02;52162.75;5040966;28;20202;-75
2021/06/13 09:39:32;;;;;;;12.77;5.17;;;;;;;-144.99;52.70;52177.00;5041349;28;20227;-77
2021/06/13 09:42:12;;;;;;;9.00;4.37;;;;;;;-144.99;52.39;52166.81;5041157;28;20233;-80
2021/06/13 09:44:46;;;;;;;10.23;4.20;;;;;;;-144.99;52.44;52174.97;5043668;28;20211;-75
2021/06/13 09:47:31;;;;;;;10.57;4.60;;;;;;;-144.99;52.32;52191.28;5044231;28;20587;-77
2021/06/13 09:50:05;;;;;;;8.33;4.13;;;;;;;-144.99;52.50;52179.06;5048236;28;20207;-77
2021/06/13 09:52:40;;;;;;;9.10;4.20;;;;;;;-144.99;52.67;52183.13;5047332;28;20206;-81
2021/06/13 09:58:16;;;;;;;18.37;5.70;;;;;;;-144.99;52.58;52154.59;5131332;27;20929;-61
2021/06/13 10:00:42;;;;;;;10.17;4.40;;;;;;;-144.99;53.05;52136.25;5098042;28;20233;-63
2021/06/13 10:03:22;;;;;;;9.13;5.20;;;;;;;-144.99;52.35;52166.81;5103755;28;20212;-62
2021/06/13 10:05:55;;;;;;;8.90;4.97;;;;;;;-144.99;51.86;52146.44;5103388;28;20206;-63
2021/06/13 10:08:21;;;;;;;10.07;4.90;;;;;;;-144.99;51.96;52146.44;5098699;28;20737;-62
2021/06/13 10:10:49;;;;;;;12.70;4.90;;;;;;;-144.99;52.18;52174.97;5107438;28;20213;-64
2021/06/13 10:13:17;;;;;;;8.67;4.47;;;;;;;-144.99;51.74;52101.59;5095476;28;20221;-63
2021/06/13 10:15:50;;;;;;;12.63;4.73;;;;;;;-144.99;50.94;52170.91;5103077;28;20223;-63
2021/06/13 10:18:17;;;;;;;9.17;5.23;;;;;;;-144.99;51.20;52158.66;5100745;28;20230;-63
2021/06/13 10:20:44;;;;;;;8.17;3.87;;;;;;;-144.99;51.63;52174.97;5105960;28;20318;-61
2021/06/13 10:23:11;;;;;;;8.30;5.10;;;;;;;-144.99;52.11;52132.19;5100133;28;20554;-61
2021/06/13 10:25:37;;;;;;;11.37;4.40;;;;;;;-144.99;51.85;52219.81;5106395;28;20224;-62
2021/06/13 10:28:04;;;;;;;14.23;5.20;;;;;;;-144.99;51.50;52215.75;5092438;28;20601;-62
2021/06/13 10:30:32;;;;;;;10.50;5.37;;;;;;;-144.99;51.24;52134.22;5092631;28;20206;-63
2021/06/13 10:33:02;;;;;;;13.10;5.03;;;;;;;-144.99;50.79;52150.53;5106686;28;20210;-61
2021/06/13 10:35:29;;;;;;;10.30;4.90;;;;;;;-144.99;51.10;52128.09;5104774;28;20207;-61
2021/06/13 10:37:55;;;;;;;12.40;5.10;;;;;;;-144.99;51.58;52166.81;5102213;28;20225;-61
2021/06/13 10:40:23;;;;;;;7.37;4.47;;;;;;;-144.99;50.86;52097.53;5103550;28;20639;-62
2021/06/13 10:42:50;;;;;;;7.43;4.40;;;;;;;-144.99;51.22;52124.03;5102187;28;20687;-62
2021/06/13 10:45:20;;;;;;;8.40;3.87;;;;;;;-144.99;50.85;52081.22;5105819;28;20665;-62
2021/06/13 10:48:09;;;;;;;12.10;4.73;;;;;;;-144.99;49.84;52085.31;5101478;28;20231;-64
2021/06/13 10:50:41;;;;;;;13.03;4.67;;;;;;;-144.99;49.76;52109.75;5092209;28;20235;-61
2021/06/13 10:53:11;;;;;;;14.03;5.70;;;;;;;-144.99;49.44;52107.72;5104676;28;20295;-62
2021/06/13 10:55:52;;;;;;;7.87;4.57;;;;;;;-144.99;49.87;52101.59;5108034;28;20298;-62
2021/06/13 10:58:48;;;;;;;11.57;5.90;;;;;;;-144.99;50.28;52142.38;5101383;28;20606;-62
2021/06/13 11:01:24;;;;;;;8.00;4.33;;;;;;;-144.99;50.91;52174.97;5101774;28;20218;-63
2021/06/13 11:04:08;;;;;;;15.50;4.47;;;;;;;-144.99;50.61;52113.84;5101689;28;20271;-64
2021/06/13 11:06:45;;;;;;;9.80;4.37;;;;;;;-144.99;50.52;52117.91;5101484;28;20661;-64
2021/06/13 11:09:14;;;;;;;12.23;4.13;;;;;;;-144.99;49.42;52111.78;5086254;28;20219;-64
2021/06/13 11:11:43;;;;;;;9.37;4.67;;;;;;;-144.99;48.66;52162.75;5086223;28;20669;-63
2021/06/13 11:14:24;;;;;;;8.53;4.20;;;;;;;-144.99;49.49;52168.84;5086289;28;20214;-63
2021/06/13 11:16:53;;;;;;;7.60;3.67;;;;;;;-144.99;49.93;52138.28;5083552;28;20220;-63
2021/06/13 11:19:34;;;;;;;8.60;3.73;;;;;;;-144.99;49.32;52170.91;5086598;28;20231;-65
2021/06/13 11:22:35;;;;;;;6.73;2.93;;;;;;;-144.99;49.24;52109.75;5086293;28;20749;-62
2021/06/13 11:25:01;;;;;;;14.23;5.73;;;;;;;-144.99;48.86;52081.22;5084623;28;20204;-64
2021/06/13 11:27:32;;;;;;;9.43;4.20;;;;;;;-144.99;48.88;52174.97;5089250;28;20694;-63
2021/06/13 11:30:00;;;;;;;8.77;4.43;;;;;;;-144.99;48.19;52071.03;5088906;28;20216;-67
2021/06/13 11:32:52;;;;;;;11.97;4.57;;;;;;;-144.99;47.82;52126.06;5088797;28;20204;-67
2021/06/13 11:35:28;;;;;;;9.70;3.90;;;;;;;-144.99;47.77;52069.00;5088173;28;20208;-65
2021/06/13 11:38:23;;;;;;;7.70;4.27;;;;;;;-144.99;47.87;52101.59;5084533;28;20224;-61
2021/06/13 11:40:55;;;;;;;8.83;3.63;;;;;;;-144.99;47.87;52130.13;5089118;28;20215;-67
2021/06/13 11:43:23;;;;;;;6.47;3.03;;;;;;;-144.99;47.01;52156.63;5088401;28;20307;-66
2021/06/13 11:45:54;;;;;;;10.63;3.43;;;;;;;-144.99;47.33;52071.03;5084381;28;20196;-66
2021/06/13 11:48:23;;;;;;;7.67;3.73;;;;;;;-144.99;47.92;52142.38;5083577;28;20225;-67
2021/06/13 11:51:04;;;;;;;10.83;4.27;;;;;;;-144.99;48.31;52158.66;5084518;28;20582;-64
2021/06/13 11:53:53;;;;;;;8.90;3.53;;;;;;;-144.99;48.71;52060.84;5079017;28;20213;-66
2021/06/13 11:56:44;;;;;;;6.50;3.67;;;;;;;-144.99;48.06;52117.91;5081868;28;20223;-65
2021/06/13 11:59:19;;;;;;;9.57;4.10;;;;;;;-144.99;46.75;52040.47;5089375;28;20652;-66
2021/06/13 12:01:53;;;;;;;8.77;4.37;;;;;;;-144.99;46.83;52148.47;5091840;28;20220;-66
2021/06/13 12:04:23;;;;;;;11.10;2.77;;;;;;;-144.99;46.90;52087.34;5089587;28;20221;-65
2021/06/13 12:06:55;;;;;;;10.97;3.97;;;;;;;-144.99;46.83;52064.91;5084567;28;20700;-65
2021/06/13 12:09:23;;;;;;;8.57;4.43;;;;;;;-144.99;47.12;52081.22;5081020;28;20219;-65
2021/06/13 12:11:51;;;;;;;11.53;4.17;;;;;;;-144.99;46.80;52093.44;5082010;28;20219;-67
2021/06/13 12:14:35;;;;;;;8.33;4.13;;;;;;;-144.99;48.00;52117.91;5091799;28;20216;-67
2021/06/13 12:17:03;;;;;;;9.50;3.73;;;;;;;-144.99;47.53;52130.13;5087777;28;20225;-67
2021/06/13 12:19:44;;;;;;;9.77;4.17;;;;;;;-144.99;47.70;52130.13;5084543;28;20227;-63
2021/06/13 12:22:30;;;;;;;10.37;4.13;;;;;;;-144.99;47.55;52077.16;5084975;28;20260;-64